sensor_id;sensor_type;location;lat;lon;timestamp;pressure;altitude;pressure_sealevel;temperature;humidity
60920;BME280;59039;52.108;19.942;2023-02-02T00:01:24;99412.60;;;2.81;83.70
60920;BME280;59039;52.108;19.942;2023-02-02T00:03:53;99415.86;;;2.82;83.60
60920;BME280;59039;52.108;19.942;2023-02-02T00:06:23;99416.64;;;2.84;83.75
60920;BME280;59039;52.108;19.942;2023-02-02T00:08:49;99415.02;;;2.86;83.55
60920;BME280;59039;52.108;19.942;2023-02-02T00:13:57;99411.11;;;2.89;83.70
60920;BME280;59039;52.108;19.942;2023-02-02T00:16:42;99410.89;;;2.90;83.58
60920;BME280;59039;52.108;19.942;2023-02-02T00:19:22;99409.91;;;2.91;83.68
60920;BME280;59039;52.108;19.942;2023-02-02T00:21:48;99414.23;;;2.91;83.61
60920;BME280;59039;52.108;19.942;2023-02-02T00:24:35;99410.61;;;2.91;83.67
60920;BME280;59039;52.108;19.942;2023-02-02T00:27:05;99414.52;;;2.91;83.78
60920;BME280;59039;52.108;19.942;2023-02-02T00:29:51;99411.83;;;2.91;84.10
60920;BME280;59039;52.108;19.942;2023-02-02T00:32:19;99407.86;;;2.92;83.88
60920;BME280;59039;52.108;19.942;2023-02-02T00:34:55;99409.85;;;2.92;83.84
60920;BME280;59039;52.108;19.942;2023-02-02T00:37:29;99410.17;;;2.92;83.87
60920;BME280;59039;52.108;19.942;2023-02-02T00:39:54;99409.44;;;2.92;83.73
60920;BME280;59039;52.108;19.942;2023-02-02T00:44:58;99409.94;;;2.91;84.16
60920;BME280;59039;52.108;19.942;2023-02-02T00:47:38;99409.67;;;2.91;84.25
60920;BME280;59039;52.108;19.942;2023-02-02T00:50:04;99410.17;;;2.92;84.04
60920;BME280;59039;52.108;19.942;2023-02-02T00:52:30;99406.57;;;2.93;84.16
60920;BME280;59039;52.108;19.942;2023-02-02T00:54:56;99411.25;;;2.92;84.29
60920;BME280;59039;52.108;19.942;2023-02-02T00:57:23;99407.11;;;2.92;83.80
60920;BME280;59039;52.108;19.942;2023-02-02T00:59:49;99415.07;;;2.89;84.11
60920;BME280;59039;52.108;19.942;2023-02-02T01:02:35;99412.34;;;2.86;84.25
60920;BME280;59039;52.108;19.942;2023-02-02T01:05:00;99412.55;;;2.83;84.03
60920;BME280;59039;52.108;19.942;2023-02-02T01:07:26;99409.14;;;2.79;84.21
60920;BME280;59039;52.108;19.942;2023-02-02T01:09:52;99410.03;;;2.77;84.14
60920;BME280;59039;52.108;19.942;2023-02-02T01:12:30;99404.23;;;2.76;84.03
60920;BME280;59039;52.108;19.942;2023-02-02T01:14:56;99405.66;;;2.74;84.37
60920;BME280;59039;52.108;19.942;2023-02-02T01:17:21;99398.91;;;2.74;84.28
60920;BME280;59039;52.108;19.942;2023-02-02T01:19:57;99402.15;;;2.73;84.26
60920;BME280;59039;52.108;19.942;2023-02-02T01:22:38;99403.84;;;2.72;84.65
60920;BME280;59039;52.108;19.942;2023-02-02T01:25:24;99407.42;;;2.72;84.24
60920;BME280;59039;52.108;19.942;2023-02-02T01:27:50;99404.52;;;2.73;84.22
60920;BME280;59039;52.108;19.942;2023-02-02T01:30:18;99407.80;;;2.71;84.26
60920;BME280;59039;52.108;19.942;2023-02-02T01:33:03;99403.59;;;2.73;84.09
60920;BME280;59039;52.108;19.942;2023-02-02T01:35:29;99402.11;;;2.71;84.62
60920;BME280;59039;52.108;19.942;2023-02-02T01:37:54;99403.35;;;2.71;84.39
60920;BME280;59039;52.108;19.942;2023-02-02T01:40:25;99404.09;;;2.71;84.38
60920;BME280;59039;52.108;19.942;2023-02-02T01:42:50;99403.09;;;2.73;84.72
60920;BME280;59039;52.108;19.942;2023-02-02T01:45:27;99403.80;;;2.75;84.91
60920;BME280;59039;52.108;19.942;2023-02-02T01:48:01;99404.71;;;2.77;84.68
60920;BME280;59039;52.108;19.942;2023-02-02T01:50:33;99404.09;;;2.78;85.09
60920;BME280;59039;52.108;19.942;2023-02-02T01:53:20;99404.56;;;2.78;84.98
60920;BME280;59039;52.108;19.942;2023-02-02T01:55:46;99405.23;;;2.79;85.51
60920;BME280;59039;52.108;19.942;2023-02-02T02:01:06;99399.27;;;2.84;85.06
60920;BME280;59039;52.108;19.942;2023-02-02T02:03:34;99393.62;;;2.87;84.72
60920;BME280;59039;52.108;19.942;2023-02-02T02:06:03;99391.35;;;2.91;84.59
60920;BME280;59039;52.108;19.942;2023-02-02T02:08:34;99391.80;;;2.91;84.57
60920;BME280;59039;52.108;19.942;2023-02-02T02:11:07;99393.80;;;2.93;84.49
60920;BME280;59039;52.108;19.942;2023-02-02T02:13:43;99399.48;;;2.94;84.93
60920;BME280;59039;52.108;19.942;2023-02-02T02:16:17;99404.69;;;2.96;84.99
60920;BME280;59039;52.108;19.942;2023-02-02T02:19:18;99403.56;;;2.98;84.80
60920;BME280;59039;52.108;19.942;2023-02-02T02:21:58;99399.30;;;3.00;84.91
60920;BME280;59039;52.108;19.942;2023-02-02T02:30:35;99395.65;;;3.07;84.58
60920;BME280;59039;52.108;19.942;2023-02-02T02:33:16;99393.84;;;3.07;84.53
60920;BME280;59039;52.108;19.942;2023-02-02T02:35:57;99389.04;;;3.09;84.37
60920;BME280;59039;52.108;19.942;2023-02-02T02:38:36;99388.02;;;3.12;84.20
60920;BME280;59039;52.108;19.942;2023-02-02T02:41:15;99388.93;;;3.12;84.16
60920;BME280;59039;52.108;19.942;2023-02-02T02:43:49;99389.95;;;3.13;84.14
60920;BME280;59039;52.108;19.942;2023-02-02T02:46:22;99391.14;;;3.14;84.18
60920;BME280;59039;52.108;19.942;2023-02-02T02:48:48;99389.63;;;3.15;84.17
60920;BME280;59039;52.108;19.942;2023-02-02T02:51:48;99390.73;;;3.17;84.12
60920;BME280;59039;52.108;19.942;2023-02-02T02:54:35;99385.08;;;3.16;84.08
60920;BME280;59039;52.108;19.942;2023-02-02T03:03:46;99394.70;;;3.18;83.99
60920;BME280;59039;52.108;19.942;2023-02-02T03:09:36;99394.45;;;3.19;83.80
60920;BME280;59039;52.108;19.942;2023-02-02T03:15:01;99400.66;;;3.20;83.77
60920;BME280;59039;52.108;19.942;2023-02-02T03:17:40;99399.73;;;3.18;83.81
60920;BME280;59039;52.108;19.942;2023-02-02T03:20:07;99404.37;;;3.18;83.71
60920;BME280;59039;52.108;19.942;2023-02-02T03:22:33;99402.11;;;3.18;83.76
60920;BME280;59039;52.108;19.942;2023-02-02T03:25:07;99401.17;;;3.16;83.73
60920;BME280;59039;52.108;19.942;2023-02-02T03:27:43;99403.14;;;3.16;83.68
60920;BME280;59039;52.108;19.942;2023-02-02T03:30:11;99406.83;;;3.15;83.74
60920;BME280;59039;52.108;19.942;2023-02-02T03:32:39;99412.32;;;3.15;83.76
60920;BME280;59039;52.108;19.942;2023-02-02T03:35:08;99414.61;;;3.16;83.69
60920;BME280;59039;52.108;19.942;2023-02-02T03:37:55;99415.91;;;3.15;83.76
60920;BME280;59039;52.108;19.942;2023-02-02T03:40:32;99411.78;;;3.15;83.74
60920;BME280;59039;52.108;19.942;2023-02-02T03:45:43;99420.56;;;3.13;83.60
60920;BME280;59039;52.108;19.942;2023-02-02T03:48:24;99415.95;;;3.13;83.70
60920;BME280;59039;52.108;19.942;2023-02-02T03:50:52;99416.45;;;3.15;83.65
60920;BME280;59039;52.108;19.942;2023-02-02T03:53:20;99415.58;;;3.15;83.65
60920;BME280;59039;52.108;19.942;2023-02-02T03:58:24;99413.34;;;3.14;83.60
60920;BME280;59039;52.108;19.942;2023-02-02T04:00:50;99414.05;;;3.16;83.58
60920;BME280;59039;52.108;19.942;2023-02-02T04:03:17;99410.14;;;3.18;83.63
60920;BME280;59039;52.108;19.942;2023-02-02T04:05:43;99407.86;;;3.19;83.59
60920;BME280;59039;52.108;19.942;2023-02-02T04:08:11;99404.39;;;3.21;83.55
60920;BME280;59039;52.108;19.942;2023-02-02T04:10:37;99402.59;;;3.20;83.54
60920;BME280;59039;52.108;19.942;2023-02-02T04:13:05;99395.59;;;3.20;83.54
60920;BME280;59039;52.108;19.942;2023-02-02T04:15:39;99393.39;;;3.21;83.48
60920;BME280;59039;52.108;19.942;2023-02-02T04:18:07;99390.76;;;3.20;83.46
60920;BME280;59039;52.108;19.942;2023-02-02T04:20:32;99391.21;;;3.22;83.47
60920;BME280;59039;52.108;19.942;2023-02-02T04:23:01;99389.13;;;3.23;83.39
60920;BME280;59039;52.108;19.942;2023-02-02T04:25:26;99386.99;;;3.25;83.28
60920;BME280;59039;52.108;19.942;2023-02-02T04:28:12;99388.30;;;3.26;83.32
60920;BME280;59039;52.108;19.942;2023-02-02T04:30:42;99388.58;;;3.27;83.25
60920;BME280;59039;52.108;19.942;2023-02-02T04:33:11;99388.52;;;3.28;83.22
60920;BME280;59039;52.108;19.942;2023-02-02T04:35:36;99381.40;;;3.27;83.20
60920;BME280;59039;52.108;19.942;2023-02-02T04:38:02;99386.65;;;3.26;83.13
60920;BME280;59039;52.108;19.942;2023-02-02T04:40:27;99387.67;;;3.27;83.15
60920;BME280;59039;52.108;19.942;2023-02-02T04:43:01;99386.02;;;3.27;83.16
60920;BME280;59039;52.108;19.942;2023-02-02T04:45:32;99386.05;;;3.27;83.08
60920;BME280;59039;52.108;19.942;2023-02-02T04:47:58;99379.95;;;3.27;83.09
60920;BME280;59039;52.108;19.942;2023-02-02T04:50:23;99377.66;;;3.27;83.07
60920;BME280;59039;52.108;19.942;2023-02-02T04:52:51;99377.63;;;3.27;82.96
60920;BME280;59039;52.108;19.942;2023-02-02T04:55:17;99381.16;;;3.28;82.86
60920;BME280;59039;52.108;19.942;2023-02-02T04:57:45;99386.16;;;3.28;82.87
60920;BME280;59039;52.108;19.942;2023-02-02T05:00:11;99386.41;;;3.27;82.94
60920;BME280;59039;52.108;19.942;2023-02-02T05:02:45;99385.09;;;3.26;82.81
60920;BME280;59039;52.108;19.942;2023-02-02T05:05:12;99387.54;;;3.27;82.94
60920;BME280;59039;52.108;19.942;2023-02-02T05:07:41;99386.75;;;3.25;83.05
60920;BME280;59039;52.108;19.942;2023-02-02T05:10:16;99382.65;;;3.25;83.14
60920;BME280;59039;52.108;19.942;2023-02-02T05:12:44;99382.16;;;3.24;83.29
60920;BME280;59039;52.108;19.942;2023-02-02T05:15:13;99378.67;;;3.23;83.41
60920;BME280;59039;52.108;19.942;2023-02-02T05:17:41;99376.73;;;3.23;83.63
60920;BME280;59039;52.108;19.942;2023-02-02T05:20:07;99368.77;;;3.24;83.59
60920;BME280;59039;52.108;19.942;2023-02-02T05:22:38;99364.23;;;3.25;83.61
60920;BME280;59039;52.108;19.942;2023-02-02T05:25:09;99359.64;;;3.26;83.87
60920;BME280;59039;52.108;19.942;2023-02-02T05:27:34;99360.33;;;3.27;83.82
60920;BME280;59039;52.108;19.942;2023-02-02T05:30:00;99358.27;;;3.28;83.79
60920;BME280;59039;52.108;19.942;2023-02-02T05:32:39;99356.35;;;3.29;83.83
60920;BME280;59039;52.108;19.942;2023-02-02T05:35:05;99355.02;;;3.30;83.93
60920;BME280;59039;52.108;19.942;2023-02-02T05:37:31;99349.08;;;3.30;83.87
60920;BME280;59039;52.108;19.942;2023-02-02T05:39:56;99349.55;;;3.31;83.92
60920;BME280;59039;52.108;19.942;2023-02-02T05:42:22;99349.19;;;3.31;83.82
60920;BME280;59039;52.108;19.942;2023-02-02T05:44:47;99349.77;;;3.30;83.87
60920;BME280;59039;52.108;19.942;2023-02-02T05:47:16;99346.23;;;3.30;83.96
60920;BME280;59039;52.108;19.942;2023-02-02T05:49:41;99340.58;;;3.29;84.10
60920;BME280;59039;52.108;19.942;2023-02-02T05:52:08;99336.09;;;3.29;84.02
60920;BME280;59039;52.108;19.942;2023-02-02T05:54:38;99335.98;;;3.28;83.93
60920;BME280;59039;52.108;19.942;2023-02-02T05:57:03;99333.86;;;3.28;83.83
60920;BME280;59039;52.108;19.942;2023-02-02T05:59:29;99329.23;;;3.26;83.69
60920;BME280;59039;52.108;19.942;2023-02-02T06:01:56;99324.83;;;3.23;83.84
60920;BME280;59039;52.108;19.942;2023-02-02T06:04:22;99322.70;;;3.21;83.80
60920;BME280;59039;52.108;19.942;2023-02-02T06:06:48;99315.73;;;3.19;83.69
60920;BME280;59039;52.108;19.942;2023-02-02T06:09:13;99315.30;;;3.15;83.69
60920;BME280;59039;52.108;19.942;2023-02-02T06:11:44;99311.56;;;3.13;83.88
60920;BME280;59039;52.108;19.942;2023-02-02T06:14:10;99306.94;;;3.11;83.94
60920;BME280;59039;52.108;19.942;2023-02-02T06:16:38;99307.59;;;3.10;83.89
60920;BME280;59039;52.108;19.942;2023-02-02T06:19:04;99308.46;;;3.08;84.04
60920;BME280;59039;52.108;19.942;2023-02-02T06:21:33;99306.73;;;3.07;83.99
60920;BME280;59039;52.108;19.942;2023-02-02T06:23:59;99305.31;;;3.07;84.00
60920;BME280;59039;52.108;19.942;2023-02-02T06:26:27;99297.66;;;3.06;84.11
60920;BME280;59039;52.108;19.942;2023-02-02T06:28:53;99300.34;;;3.06;84.09
60920;BME280;59039;52.108;19.942;2023-02-02T06:31:22;99295.17;;;3.06;84.06
60920;BME280;59039;52.108;19.942;2023-02-02T06:33:53;99297.77;;;3.05;84.13
60920;BME280;59039;52.108;19.942;2023-02-02T06:36:19;99295.13;;;3.05;84.23
60920;BME280;59039;52.108;19.942;2023-02-02T06:38:49;99294.78;;;3.04;84.27
60920;BME280;59039;52.108;19.942;2023-02-02T06:41:17;99290.16;;;3.04;84.21
60920;BME280;59039;52.108;19.942;2023-02-02T06:43:43;99290.35;;;3.04;84.22
60920;BME280;59039;52.108;19.942;2023-02-02T06:46:08;99287.55;;;3.03;84.22
60920;BME280;59039;52.108;19.942;2023-02-02T06:48:34;99290.89;;;3.02;84.16
60920;BME280;59039;52.108;19.942;2023-02-02T06:50:59;99287.29;;;3.00;84.18
60920;BME280;59039;52.108;19.942;2023-02-02T06:53:27;99283.86;;;2.98;84.25
60920;BME280;59039;52.108;19.942;2023-02-02T06:58:29;99280.48;;;2.96;84.27
60920;BME280;59039;52.108;19.942;2023-02-02T07:00:59;99279.21;;;2.94;84.42
60920;BME280;59039;52.108;19.942;2023-02-02T07:03:35;99274.48;;;2.93;84.45
60920;BME280;59039;52.108;19.942;2023-02-02T07:06:21;99278.09;;;2.92;84.30
60920;BME280;59039;52.108;19.942;2023-02-02T07:08:51;99276.45;;;2.91;84.37
60920;BME280;59039;52.108;19.942;2023-02-02T07:11:37;99276.50;;;2.89;84.18
60920;BME280;59039;52.108;19.942;2023-02-02T07:14:03;99274.45;;;2.85;84.10
60920;BME280;59039;52.108;19.942;2023-02-02T07:16:40;99275.68;;;2.83;84.29
60920;BME280;59039;52.108;19.942;2023-02-02T07:19:05;99271.34;;;2.82;84.41
60920;BME280;59039;52.108;19.942;2023-02-02T07:21:31;99277.93;;;2.80;84.32
60920;BME280;59039;52.108;19.942;2023-02-02T07:24:08;99278.68;;;2.80;84.27
60920;BME280;59039;52.108;19.942;2023-02-02T07:26:34;99276.34;;;2.78;84.12
60920;BME280;59039;52.108;19.942;2023-02-02T07:29:00;99278.95;;;2.77;84.31
60920;BME280;59039;52.108;19.942;2023-02-02T07:31:33;99283.17;;;2.75;84.15
60920;BME280;59039;52.108;19.942;2023-02-02T07:34:01;99288.05;;;2.73;84.08
60920;BME280;59039;52.108;19.942;2023-02-02T07:39:05;99285.54;;;2.68;84.20
60920;BME280;59039;52.108;19.942;2023-02-02T07:41:33;99287.30;;;2.67;84.14
60920;BME280;59039;52.108;19.942;2023-02-02T07:44:20;99288.35;;;2.65;84.26
60920;BME280;59039;52.108;19.942;2023-02-02T07:47:06;99290.45;;;2.63;84.12
60920;BME280;59039;52.108;19.942;2023-02-02T07:49:42;99292.90;;;2.62;84.15
60920;BME280;59039;52.108;19.942;2023-02-02T07:52:15;99296.48;;;2.60;84.11
60920;BME280;59039;52.108;19.942;2023-02-02T07:54:44;99301.09;;;2.58;84.18
60920;BME280;59039;52.108;19.942;2023-02-02T07:57:18;99301.88;;;2.58;84.15
60920;BME280;59039;52.108;19.942;2023-02-02T07:59:44;99304.54;;;2.56;84.48
60920;BME280;59039;52.108;19.942;2023-02-02T08:02:12;99308.63;;;2.56;84.41
60920;BME280;59039;52.108;19.942;2023-02-02T08:04:47;99315.55;;;2.55;84.60
60920;BME280;59039;52.108;19.942;2023-02-02T08:07:18;99320.59;;;2.52;84.70
60920;BME280;59039;52.108;19.942;2023-02-02T08:10:20;99328.28;;;2.50;84.78
60920;BME280;59039;52.108;19.942;2023-02-02T08:12:45;99328.51;;;2.49;84.96
60920;BME280;59039;52.108;19.942;2023-02-02T08:15:20;99332.77;;;2.50;84.85
60920;BME280;59039;52.108;19.942;2023-02-02T08:17:45;99338.04;;;2.51;85.11
60920;BME280;59039;52.108;19.942;2023-02-02T08:20:14;99341.27;;;2.50;85.42
60920;BME280;59039;52.108;19.942;2023-02-02T08:22:42;99343.48;;;2.52;84.97
60920;BME280;59039;52.108;19.942;2023-02-02T08:25:08;99341.63;;;2.51;85.18
60920;BME280;59039;52.108;19.942;2023-02-02T08:27:33;99345.57;;;2.50;85.45
60920;BME280;59039;52.108;19.942;2023-02-02T08:29:59;99348.64;;;2.53;85.68
60920;BME280;59039;52.108;19.942;2023-02-02T08:32:33;99353.55;;;2.54;86.08
60920;BME280;59039;52.108;19.942;2023-02-02T08:34:59;99353.08;;;2.55;86.20
60920;BME280;59039;52.108;19.942;2023-02-02T08:37:24;99358.41;;;2.58;86.25
60920;BME280;59039;52.108;19.942;2023-02-02T08:39:50;99362.94;;;2.59;86.57
60920;BME280;59039;52.108;19.942;2023-02-02T08:42:18;99364.66;;;2.60;86.88
60920;BME280;59039;52.108;19.942;2023-02-02T08:44:44;99367.80;;;2.60;87.01
60920;BME280;59039;52.108;19.942;2023-02-02T08:47:09;99374.63;;;2.62;86.93
60920;BME280;59039;52.108;19.942;2023-02-02T08:49:35;99377.91;;;2.64;86.86
60920;BME280;59039;52.108;19.942;2023-02-02T08:52:03;99384.64;;;2.66;86.83
60920;BME280;59039;52.108;19.942;2023-02-02T08:54:31;99390.92;;;2.70;86.65
60920;BME280;59039;52.108;19.942;2023-02-02T08:57:06;99393.31;;;2.74;87.06
60920;BME280;59039;52.108;19.942;2023-02-02T08:59:32;99397.12;;;2.78;86.71
60920;BME280;59039;52.108;19.942;2023-02-02T09:01:57;99401.80;;;2.82;86.58
60920;BME280;59039;52.108;19.942;2023-02-02T09:04:40;99407.25;;;2.85;86.58
60920;BME280;59039;52.108;19.942;2023-02-02T09:07:12;99412.08;;;2.89;86.65
60920;BME280;59039;52.108;19.942;2023-02-02T09:09:37;99421.58;;;2.91;86.52
60920;BME280;59039;52.108;19.942;2023-02-02T09:12:10;99432.19;;;2.94;86.69
60920;BME280;59039;52.108;19.942;2023-02-02T09:14:41;99438.63;;;2.97;86.52
60920;BME280;59039;52.108;19.942;2023-02-02T09:17:09;99441.95;;;3.00;86.38
60920;BME280;59039;52.108;19.942;2023-02-02T09:19:34;99451.16;;;3.03;86.12
60920;BME280;59039;52.108;19.942;2023-02-02T09:22:00;99460.16;;;3.06;86.31
60920;BME280;59039;52.108;19.942;2023-02-02T09:24:25;99463.84;;;3.09;85.99
60920;BME280;59039;52.108;19.942;2023-02-02T09:26:51;99472.19;;;3.12;85.80
60920;BME280;59039;52.108;19.942;2023-02-02T09:29:22;99479.11;;;3.15;85.54
60920;BME280;59039;52.108;19.942;2023-02-02T09:31:47;99486.25;;;3.20;85.59
60920;BME280;59039;52.108;19.942;2023-02-02T09:34:26;99492.00;;;3.21;85.51
60920;BME280;59039;52.108;19.942;2023-02-02T09:36:51;99497.86;;;3.24;85.40
60920;BME280;59039;52.108;19.942;2023-02-02T09:39:29;99504.05;;;3.27;85.09
60920;BME280;59039;52.108;19.942;2023-02-02T09:42:05;99510.92;;;3.28;84.86
60920;BME280;59039;52.108;19.942;2023-02-02T09:44:57;99514.52;;;3.30;84.82
60920;BME280;59039;52.108;19.942;2023-02-02T09:47:41;99514.98;;;3.33;84.92
60920;BME280;59039;52.108;19.942;2023-02-02T09:53:46;99525.02;;;3.40;85.04
60920;BME280;59039;52.108;19.942;2023-02-02T09:56:23;99532.43;;;3.41;84.86
60920;BME280;59039;52.108;19.942;2023-02-02T09:58:53;99534.54;;;3.44;85.11
60920;BME280;59039;52.108;19.942;2023-02-02T10:01:45;99540.34;;;3.47;85.21
60920;BME280;59039;52.108;19.942;2023-02-02T10:04:34;99546.08;;;3.51;85.25
60920;BME280;59039;52.108;19.942;2023-02-02T10:07:07;99549.30;;;3.53;85.17
60920;BME280;59039;52.108;19.942;2023-02-02T10:10:14;99556.31;;;3.55;85.29
60920;BME280;59039;52.108;19.942;2023-02-02T10:12:42;99560.96;;;3.57;85.28
60920;BME280;59039;52.108;19.942;2023-02-02T10:23:35;99581.06;;;3.65;85.22
60920;BME280;59039;52.108;19.942;2023-02-02T10:31:17;99595.09;;;3.77;84.95
60920;BME280;59039;52.108;19.942;2023-02-02T10:34:00;99599.36;;;3.82;85.20
60920;BME280;59039;52.108;19.942;2023-02-02T10:36:37;99608.18;;;3.85;85.20
60920;BME280;59039;52.108;19.942;2023-02-02T10:39:33;99613.60;;;3.87;84.80
60920;BME280;59039;52.108;19.942;2023-02-02T10:45:25;99619.04;;;3.88;84.88
60920;BME280;59039;52.108;19.942;2023-02-02T10:47:50;99622.16;;;3.89;85.12
60920;BME280;59039;52.108;19.942;2023-02-02T10:50:26;99623.63;;;3.89;84.93
60920;BME280;59039;52.108;19.942;2023-02-02T10:52:54;99626.71;;;3.84;84.87
60920;BME280;59039;52.108;19.942;2023-02-02T10:55:30;99633.35;;;3.78;85.06
60920;BME280;59039;52.108;19.942;2023-02-02T11:00:46;99639.42;;;3.69;85.20
60920;BME280;59039;52.108;19.942;2023-02-02T11:03:33;99643.70;;;3.63;85.00
60920;BME280;59039;52.108;19.942;2023-02-02T11:06:00;99650.46;;;3.56;85.15
60920;BME280;59039;52.108;19.942;2023-02-02T11:08:38;99645.97;;;3.51;85.37
60920;BME280;59039;52.108;19.942;2023-02-02T11:22:01;99675.46;;;3.34;85.62
60920;BME280;59039;52.108;19.942;2023-02-02T11:24:48;99676.44;;;3.32;85.85
60920;BME280;59039;52.108;19.942;2023-02-02T11:27:25;99682.73;;;3.29;86.25
60920;BME280;59039;52.108;19.942;2023-02-02T11:30:41;99688.38;;;3.28;86.31
60920;BME280;59039;52.108;19.942;2023-02-02T11:38:17;99702.02;;;3.23;86.18
60920;BME280;59039;52.108;19.942;2023-02-02T11:41:06;99705.80;;;3.23;86.48
60920;BME280;59039;52.108;19.942;2023-02-02T11:43:39;99708.58;;;3.22;86.45
60920;BME280;59039;52.108;19.942;2023-02-02T11:46:27;99714.56;;;3.21;86.40
60920;BME280;59039;52.108;19.942;2023-02-02T11:49:20;99714.85;;;3.21;86.40
60920;BME280;59039;52.108;19.942;2023-02-02T11:52:01;99721.23;;;3.23;86.47
60920;BME280;59039;52.108;19.942;2023-02-02T11:54:36;99730.03;;;3.25;86.80
60920;BME280;59039;52.108;19.942;2023-02-02T11:57:08;99737.87;;;3.27;86.68
60920;BME280;59039;52.108;19.942;2023-02-02T11:59:39;99747.94;;;3.29;87.00
60920;BME280;59039;52.108;19.942;2023-02-02T12:02:29;99754.36;;;3.31;86.92
60920;BME280;59039;52.108;19.942;2023-02-02T12:07:51;99768.79;;;3.39;86.84
60920;BME280;59039;52.108;19.942;2023-02-02T12:10:41;99769.55;;;3.43;87.16
60920;BME280;59039;52.108;19.942;2023-02-02T12:13:53;99776.58;;;3.46;86.75
60920;BME280;59039;52.108;19.942;2023-02-02T12:16:51;99777.52;;;3.51;86.62
60920;BME280;59039;52.108;19.942;2023-02-02T12:40:25;99832.21;;;3.81;84.15
60920;BME280;59039;52.108;19.942;2023-02-02T12:43:41;99835.35;;;3.84;83.25
60920;BME280;59039;52.108;19.942;2023-02-02T12:49:27;99851.80;;;3.91;82.30
60920;BME280;59039;52.108;19.942;2023-02-02T12:52:15;99861.33;;;3.94;81.60
60920;BME280;59039;52.108;19.942;2023-02-02T12:58:26;99878.39;;;4.03;82.01
60920;BME280;59039;52.108;19.942;2023-02-02T13:01:21;99887.83;;;4.06;80.00
60920;BME280;59039;52.108;19.942;2023-02-02T13:09:48;99900.89;;;4.06;79.26
60920;BME280;59039;52.108;19.942;2023-02-02T13:12:18;99904.96;;;4.03;79.07
60920;BME280;59039;52.108;19.942;2023-02-02T13:14:53;99912.33;;;4.00;79.86
60920;BME280;59039;52.108;19.942;2023-02-02T13:20:03;99924.09;;;3.98;80.49
60920;BME280;59039;52.108;19.942;2023-02-02T13:22:45;99922.70;;;4.01;80.55
60920;BME280;59039;52.108;19.942;2023-02-02T13:25:28;99927.56;;;4.03;80.66
60920;BME280;59039;52.108;19.942;2023-02-02T13:27:57;99931.02;;;4.04;80.79
60920;BME280;59039;52.108;19.942;2023-02-02T13:33:17;99947.67;;;4.09;80.70
60920;BME280;59039;52.108;19.942;2023-02-02T13:35:58;99946.80;;;4.10;80.81
60920;BME280;59039;52.108;19.942;2023-02-02T13:38:28;99947.02;;;4.14;80.64
60920;BME280;59039;52.108;19.942;2023-02-02T13:40:55;99947.21;;;4.16;80.33
60920;BME280;59039;52.108;19.942;2023-02-02T13:43:51;99950.44;;;4.18;80.13
60920;BME280;59039;52.108;19.942;2023-02-02T13:54:48;99958.98;;;4.30;81.34
60920;BME280;59039;52.108;19.942;2023-02-02T14:00:26;99980.65;;;4.33;80.88
60920;BME280;59039;52.108;19.942;2023-02-02T14:03:00;99986.32;;;4.34;80.56
60920;BME280;59039;52.108;19.942;2023-02-02T14:05:39;99996.48;;;4.32;80.16
60920;BME280;59039;52.108;19.942;2023-02-02T14:08:20;100001.83;;;4.29;79.17
60920;BME280;59039;52.108;19.942;2023-02-02T14:13:46;100012.91;;;4.25;79.52
60920;BME280;59039;52.108;19.942;2023-02-02T14:16:48;100021.53;;;4.24;79.48
60920;BME280;59039;52.108;19.942;2023-02-02T14:24:37;100034.11;;;4.24;78.74
60920;BME280;59039;52.108;19.942;2023-02-02T14:30:11;100043.67;;;4.23;78.28
60920;BME280;59039;52.108;19.942;2023-02-02T14:32:44;100047.03;;;4.19;77.01
60920;BME280;59039;52.108;19.942;2023-02-02T14:37:48;100057.65;;;4.16;78.22
60920;BME280;59039;52.108;19.942;2023-02-02T14:40:28;100059.61;;;4.12;78.51
60920;BME280;59039;52.108;19.942;2023-02-02T14:49:09;100088.31;;;4.01;79.13
60920;BME280;59039;52.108;19.942;2023-02-02T14:51:45;100091.98;;;3.97;79.28
60920;BME280;59039;52.108;19.942;2023-02-02T14:54:34;100094.89;;;3.94;79.35
60920;BME280;59039;52.108;19.942;2023-02-02T14:57:25;100099.84;;;3.91;79.00
60920;BME280;59039;52.108;19.942;2023-02-02T14:59:52;100111.86;;;3.86;78.98
60920;BME280;59039;52.108;19.942;2023-02-02T15:02:22;100115.02;;;3.83;79.03
60920;BME280;59039;52.108;19.942;2023-02-02T15:08:32;100133.95;;;3.71;78.56
60920;BME280;59039;52.108;19.942;2023-02-02T15:11:04;100143.45;;;3.67;78.41
60920;BME280;59039;52.108;19.942;2023-02-02T15:13:34;100144.27;;;3.63;78.93
60920;BME280;59039;52.108;19.942;2023-02-02T15:16:09;100156.70;;;3.60;78.90
60920;BME280;59039;52.108;19.942;2023-02-02T15:18:44;100164.57;;;3.55;78.68
60920;BME280;59039;52.108;19.942;2023-02-02T15:21:16;100169.83;;;3.50;78.26
60920;BME280;59039;52.108;19.942;2023-02-02T15:23:46;100173.66;;;3.44;77.63
60920;BME280;59039;52.108;19.942;2023-02-02T15:26:17;100181.41;;;3.41;77.58
60920;BME280;59039;52.108;19.942;2023-02-02T15:28:53;100188.08;;;3.38;77.67
60920;BME280;59039;52.108;19.942;2023-02-02T15:33:52;100194.88;;;3.33;77.48
60920;BME280;59039;52.108;19.942;2023-02-02T15:43:01;100230.55;;;3.32;78.02
60920;BME280;59039;52.108;19.942;2023-02-02T15:48:26;100248.48;;;3.30;78.71
60920;BME280;59039;52.108;19.942;2023-02-02T15:51:06;100256.77;;;3.25;79.68
60920;BME280;59039;52.108;19.942;2023-02-02T15:54:25;100267.11;;;3.20;80.03
60920;BME280;59039;52.108;19.942;2023-02-02T15:57:19;100270.29;;;3.16;80.49
60920;BME280;59039;52.108;19.942;2023-02-02T15:59:48;100283.45;;;3.12;80.64
60920;BME280;59039;52.108;19.942;2023-02-02T16:02:38;100289.92;;;3.09;80.74
60920;BME280;59039;52.108;19.942;2023-02-02T16:08:00;100309.21;;;3.07;81.05
60920;BME280;59039;52.108;19.942;2023-02-02T16:10:40;100313.41;;;3.06;80.90
60920;BME280;59039;52.108;19.942;2023-02-02T16:14:13;100318.45;;;3.03;80.70
60920;BME280;59039;52.108;19.942;2023-02-02T16:16:27;100326.05;;;3.00;80.64
60920;BME280;59039;52.108;19.942;2023-02-02T16:19:25;100334.79;;;2.95;80.51
60920;BME280;59039;52.108;19.942;2023-02-02T16:24:48;100347.41;;;2.88;80.61